Cokato, Minnesota
Current Conditions -  °F | °C
As of 6:15 AM on Friday 19 Dec 2014 (Local Time) from KMGG Reporting Station
Overcast Overcast  
Wind Chill: 16°   Ceiling: 1700
Heat Index: 22°   Visibility: 7mi
Dew Point: 20°   Wind: 5mph
Humidity: 91%   Direction: 140°SE
Pressure: 30.22"   Gusts: NA
Location:  45.08°N, 94.19°W
Report Text: KMGG 191215Z AUTO 14004KT 7SM OVC017 M05/M06 A3022 RMK AO2 T10531065
Loading
Personal Weather Stations






























Interactive Weather Map New forecast layout! Learn more

10-Day Weather Forecast

Advertisements
Track Severe Weather on mobile